Time;durP1;ratioP1;P1;durP2;ratioP2;P2;SDS_P1;SDS_P2;PMS_P1;PMS_P2;Temp;Humidity;BMP_temperature;BMP_pressure;BME280_temperature;BME280_humidity;BME280_pressure;Samples;Min_cycle;Max_cycle;Signal;HPM_P1;HPM_P2
2021/08/18 00:02:10;;;;;;;21.83;16.38;;;;;;;15.25;76.57;100041.78;5014705;28;20415;-62
2021/08/18 00:05:08;;;;;;;28.25;16.67;;;;;;;15.24;76.57;100045.25;5015368;28;20532;-62
2021/08/18 00:08:03;;;;;;;26.45;17.27;;;;;;;15.23;76.55;100041.75;5016157;28;20115;-63
2021/08/18 00:10:48;;;;;;;22.85;16.80;;;;;;;15.26;76.70;100045.22;5015366;28;20065;-62
2021/08/18 00:13:31;;;;;;;19.92;16.88;;;;;;;15.25;76.69;100040.88;5015984;28;20095;-62
2021/08/18 00:16:25;;;;;;;21.35;18.13;;;;;;;15.24;76.67;100034.81;5014900;28;20076;-61
2021/08/18 00:19:18;;;;;;;21.85;16.20;;;;;;;15.25;76.66;100041.78;5015445;28;20421;-62
2021/08/18 00:22:05;;;;;;;24.60;17.70;;;;;;;15.25;76.87;100040.88;5015029;28;20575;-61
2021/08/18 00:24:55;;;;;;;24.33;17.67;;;;;;;15.23;76.75;100041.75;5014806;28;20091;-62
2021/08/18 00:27:48;;;;;;;21.13;18.35;;;;;;;15.24;76.85;100040.03;5015957;28;20052;-61
2021/08/18 00:30:40;;;;;;;24.20;17.40;;;;;;;15.24;76.76;100040.03;5014615;28;20052;-61
2021/08/18 00:33:36;;;;;;;22.33;17.95;;;;;;;15.25;76.85;100038.28;5014831;28;20044;-62
2021/08/18 00:36:31;;;;;;;21.63;16.80;;;;;;;15.25;76.90;100035.66;5014526;28;20053;-62
2021/08/18 00:39:18;;;;;;;23.50;19.42;;;;;;;15.25;76.89;100033.06;5015284;28;20052;-61
2021/08/18 00:42:02;;;;;;;20.48;18.17;;;;;;;15.26;76.75;100035.66;5014486;28;20056;-61
2021/08/18 00:44:58;;;;;;;27.30;19.45;;;;;;;15.25;76.59;100033.06;5014481;28;20096;-61
2021/08/18 00:47:55;;;;;;;25.52;17.58;;;;;;;15.25;76.84;100033.94;5014565;28;20127;-61
2021/08/18 00:50:47;;;;;;;21.92;18.63;;;;;;;15.26;76.85;100027.81;5014127;28;20095;-62
2021/08/18 00:53:43;;;;;;;24.35;20.33;;;;;;;15.26;76.90;100027.81;5014090;28;20417;-61
2021/08/18 00:56:39;;;;;;;23.52;18.88;;;;;;;15.26;76.95;100021.75;5015376;28;20049;-61
2021/08/18 00:59:32;;;;;;;26.80;21.00;;;;;;;15.26;76.85;100026.97;5013933;28;20049;-61
2021/08/18 01:02:21;;;;;;;26.33;21.50;;;;;;;15.25;77.05;100023.50;5014997;28;20107;-62
2021/08/18 01:05:10;;;;;;;27.45;20.85;;;;;;;15.26;77.04;100026.97;5013875;28;20049;-62
2021/08/18 01:07:56;;;;;;;30.55;21.40;;;;;;;15.24;77.27;100019.16;5014566;28;20408;-62
2021/08/18 01:10:51;;;;;;;26.73;21.60;;;;;;;15.24;76.89;100021.75;5014010;28;20125;-62
2021/08/18 01:13:43;;;;;;;33.33;22.33;;;;;;;15.26;77.08;100024.34;5013664;28;20048;-62
2021/08/18 01:16:45;;;;;;;30.13;22.38;;;;;;;15.25;76.90;100023.50;5014346;28;20048;-62
2021/08/18 01:19:38;;;;;;;32.95;22.75;;;;;;;15.26;77.03;100026.97;5014266;28;20052;-61
2021/08/18 01:22:34;;;;;;;26.60;21.20;;;;;;;15.26;77.23;100026.97;5014030;28;20049;-62
2021/08/18 01:25:30;;;;;;;27.10;23.38;;;;;;;15.25;77.11;100018.28;5013505;28;20048;-61
2021/08/18 01:28:20;;;;;;;30.23;22.38;;;;;;;15.26;77.03;100026.97;5014394;28;20049;-62
2021/08/18 01:31:04;;;;;;;25.65;21.55;;;;;;;15.26;77.02;100017.38;5013690;28;20053;-62
2021/08/18 01:33:48;;;;;;;31.02;24.27;;;;;;;15.26;76.92;100017.38;5013575;28;20044;-62
2021/08/18 01:36:43;;;;;;;;;;;;;;;15.25;77.11;100028.72;5014873;28;20060;-61
2021/08/18 01:39:31;;;;;;;26.50;23.27;;;;;;;15.23;77.14;100028.69;5014608;28;19971;-61
2021/08/18 01:42:23;;;;;;;26.95;22.55;;;;;;;15.25;77.28;100027.81;5013552;28;20052;-61
2021/08/18 01:45:41;;;;;;;27.60;23.38;;;;;;;15.25;77.23;100023.50;5013768;28;20437;-61
2021/08/18 01:48:40;;;;;;;32.63;23.63;;;;;;;15.26;77.10;100024.34;5013307;28;20053;-62
2021/08/18 01:51:26;;;;;;;26.58;23.65;;;;;;;15.25;77.25;100023.50;5013938;28;20071;-62
2021/08/18 01:54:13;;;;;;;26.92;23.10;;;;;;;15.26;76.83;100019.13;5014314;28;20053;-62
2021/08/18 01:57:05;;;;;;;27.63;23.23;;;;;;;15.26;77.17;100034.78;5014327;28;20061;-62
2021/08/18 01:59:57;;;;;;;30.23;25.48;;;;;;;15.27;77.38;100023.47;5012838;28;20049;-62
2021/08/18 02:02:47;;;;;;;26.60;22.17;;;;;;;15.27;77.32;100026.94;5012946;28;20060;-61
2021/08/18 02:05:45;;;;;;;30.33;23.95;;;;;;;15.27;77.33;100028.69;5012272;28;20429;-61
2021/08/18 02:08:41;;;;;;;32.42;24.20;;;;;;;15.28;77.50;100030.44;5013439;28;20045;-61
2021/08/18 02:11:39;;;;;;;33.30;24.92;;;;;;;15.28;77.46;100027.81;5012955;28;20068;-61
2021/08/18 02:14:26;;;;;;;31.08;24.08;;;;;;;15.27;77.34;100029.56;5012443;28;20049;-61
2021/08/18 02:17:11;;;;;;;33.75;25.42;;;;;;;15.28;77.35;100033.03;5013062;28;20045;-62
2021/08/18 02:19:55;;;;;;;;;;;;;;;15.26;77.41;100026.97;5013338;28;20418;-62
2021/08/18 02:22:39;;;;;;;29.05;23.45;;;;;;;15.27;77.29;100024.31;5013105;28;19920;-62
2021/08/18 02:25:24;;;;;;;30.10;24.88;;;;;;;15.28;77.32;100030.44;5012901;28;20065;-61
2021/08/18 02:28:09;;;;;;;28.67;24.08;;;;;;;15.26;77.49;100022.59;5012934;28;20548;-62
2021/08/18 02:30:53;;;;;;;30.30;24.25;;;;;;;15.27;77.34;100019.09;5012607;28;20113;-62
2021/08/18 02:33:37;;;;;;;29.98;26.23;;;;;;;15.27;77.25;100021.72;5013190;28;20567;-62
2021/08/18 02:36:21;;;;;;;29.65;24.65;;;;;;;15.26;77.33;100022.59;5013196;28;20049;-61
2021/08/18 02:39:06;;;;;;;29.25;24.35;;;;;;;15.27;77.38;100015.66;5013012;28;20124;-61
2021/08/18 02:41:50;;;;;;;30.15;24.25;;;;;;;15.29;77.42;100021.72;5013224;28;20061;-61
2021/08/18 02:44:35;;;;;;;27.45;23.10;;;;;;;15.29;77.42;100022.59;5013154;28;20053;-62
2021/08/18 02:47:19;;;;;;;27.55;22.05;;;;;;;15.28;77.59;100017.38;5012086;28;20048;-61
2021/08/18 02:50:05;;;;;;;24.38;21.70;;;;;;;15.29;77.50;100021.72;5012386;28;20116;-61
2021/08/18 02:52:49;;;;;;;31.55;24.45;;;;;;;15.28;77.50;100020.00;5012661;28;20045;-62
2021/08/18 02:55:33;;;;;;;27.77;23.35;;;;;;;15.27;77.59;100019.09;5013121;28;20051;-62
2021/08/18 02:58:17;;;;;;;26.65;23.75;;;;;;;15.27;77.62;100018.25;5012480;28;20049;-62
2021/08/18 03:01:01;;;;;;;28.77;22.48;;;;;;;15.28;77.42;100013.00;5012683;28;20052;-61
2021/08/18 03:03:45;;;;;;;25.33;21.90;;;;;;;15.28;77.59;100023.47;5012351;28;20099;-61
2021/08/18 03:06:29;;;;;;;26.20;22.02;;;;;;;15.29;77.56;100017.38;5011924;28;20045;-61
2021/08/18 03:09:13;;;;;;;25.35;21.38;;;;;;;15.28;77.70;100025.22;5012182;28;20041;-61
2021/08/18 03:11:57;;;;;;;26.27;21.25;;;;;;;15.29;77.66;100021.72;5012279;28;20096;-61
2021/08/18 03:14:41;;;;;;;27.75;22.65;;;;;;;15.29;77.71;100021.72;5012520;28;20128;-64
2021/08/18 03:17:25;;;;;;;25.45;21.73;;;;;;;15.29;77.61;100025.19;5014220;28;20486;-62
2021/08/18 03:20:10;;;;;;;;;;;;;;;15.28;77.57;100025.22;5016891;28;20044;-62
2021/08/18 03:22:53;;;;;;;24.38;20.42;;;;;;;15.28;77.58;100025.22;5016107;28;20007;-63
2021/08/18 03:25:37;;;;;;;29.13;21.85;;;;;;;15.27;77.81;100024.31;5016017;28;20265;-62
2021/08/18 03:28:21;;;;;;;26.65;21.92;;;;;;;15.28;77.68;100026.06;5016197;28;20061;-63
2021/08/18 03:31:05;;;;;;;23.63;20.83;;;;;;;15.29;77.74;100033.03;5016198;28;20098;-63
2021/08/18 03:33:49;;;;;;;29.63;23.08;;;;;;;15.28;77.67;100033.91;5016017;28;20052;-62
2021/08/18 03:36:33;;;;;;;23.92;20.73;;;;;;;15.29;77.65;100021.72;5015640;28;20056;-63
2021/08/18 03:39:20;;;;;;;23.40;20.58;;;;;;;15.29;77.90;100025.19;5015655;28;20589;-63
2021/08/18 03:42:04;;;;;;;25.77;21.45;;;;;;;15.29;77.79;100021.72;5015933;28;20053;-62
2021/08/18 03:44:49;;;;;;;27.77;23.05;;;;;;;15.29;77.80;100016.50;5015745;28;20077;-63
2021/08/18 03:47:33;;;;;;;26.08;21.58;;;;;;;15.29;77.79;100022.59;5015393;28;20452;-63
2021/08/18 03:50:16;;;;;;;25.70;21.30;;;;;;;15.30;77.77;100019.09;5015822;28;20088;-63
2021/08/18 03:53:00;;;;;;;25.52;21.23;;;;;;;15.29;77.82;100014.75;5016428;28;20049;-63
2021/08/18 03:55:44;;;;;;;27.45;22.52;;;;;;;15.29;77.80;100019.97;5015415;28;20060;-63
2021/08/18 03:58:28;;;;;;;25.13;22.13;;;;;;;15.30;77.89;100018.25;5015254;28;20417;-63
2021/08/18 04:01:12;;;;;;;26.27;21.48;;;;;;;15.30;77.75;100016.50;5015029;28;20045;-63
2021/08/18 04:03:56;;;;;;;25.48;20.92;;;;;;;15.31;77.85;100014.75;5015324;28;20056;-63
2021/08/18 04:06:40;;;;;;;25.13;20.20;;;;;;;15.30;77.91;100021.72;5014919;28;20077;-62
2021/08/18 04:09:24;;;;;;;28.77;23.27;;;;;;;15.29;77.88;100019.97;5014639;28;20471;-63
2021/08/18 04:12:08;;;;;;;23.52;20.55;;;;;;;15.29;77.86;100017.38;5015251;28;20044;-63
2021/08/18 04:14:52;;;;;;;26.38;21.75;;;;;;;15.29;77.98;100019.13;5014764;28;20131;-62
2021/08/18 04:17:35;;;;;;;28.50;21.90;;;;;;;15.29;77.98;100022.59;5015318;28;20080;-63
2021/08/18 04:20:20;;;;;;;28.40;21.67;;;;;;;15.30;77.96;100016.50;5015420;28;20057;-63
2021/08/18 04:23:05;;;;;;;27.73;22.00;;;;;;;15.30;78.15;100015.63;5015096;28;20056;-61
2021/08/18 04:25:49;;;;;;;;;;;;;;;15.29;77.93;100016.50;5014847;28;20421;-61
2021/08/18 04:28:33;;;;;;;25.33;21.25;;;;;;;15.28;78.07;100020.00;5014599;28;19940;-61
2021/08/18 04:31:17;;;;;;;24.40;20.25;;;;;;;15.29;77.98;100021.72;5014817;28;20164;-61
2021/08/18 04:34:01;;;;;;;28.02;21.58;;;;;;;15.29;78.00;100026.94;5014683;28;20139;-61
2021/08/18 04:36:45;;;;;;;23.77;18.35;;;;;;;15.29;78.03;100019.97;5014128;28;20112;-63
2021/08/18 04:39:29;;;;;;;25.27;21.70;;;;;;;15.30;78.15;100029.53;5014678;28;20195;-61
2021/08/18 04:42:13;;;;;;;22.45;18.52;;;;;;;15.30;77.90;100026.09;5014511;28;20053;-62
2021/08/18 04:45:03;;;;;;;26.33;21.83;;;;;;;15.29;78.17;100021.72;5014708;28;20104;-61
2021/08/18 04:47:47;;;;;;;27.02;20.38;;;;;;;15.30;78.01;100018.25;5014693;28;20503;-61
2021/08/18 04:50:31;;;;;;;26.23;21.33;;;;;;;15.30;78.00;100016.50;5014561;28;20504;-62
2021/08/18 04:53:16;;;;;;;27.33;21.27;;;;;;;15.29;78.12;100019.97;5014502;28;20103;-62
2021/08/18 04:56:00;;;;;;;;;;;;;;;15.30;78.00;100020.88;5014730;28;20112;-61
2021/08/18 04:58:44;;;;;;;25.02;18.83;;;;;;;15.30;78.08;100028.69;5014586;28;20368;-62
2021/08/18 05:01:28;;;;;;;25.48;19.85;;;;;;;15.30;78.32;100024.31;5014294;28;20075;-62
2021/08/18 05:04:12;;;;;;;24.40;20.85;;;;;;;15.29;78.30;100017.38;5014393;28;20563;-62
2021/08/18 05:06:55;;;;;;;26.85;20.88;;;;;;;15.30;78.08;100015.63;5014116;28;20049;-62
2021/08/18 05:09:39;;;;;;;25.23;20.35;;;;;;;15.30;78.24;100020.88;5013922;28;20084;-61
2021/08/18 05:12:24;;;;;;;27.95;21.42;;;;;;;15.31;78.07;100025.22;5014219;28;20048;-62
2021/08/18 05:15:08;;;;;;;27.13;21.52;;;;;;;15.30;78.21;100023.47;5014159;28;20523;-63
2021/08/18 05:17:52;;;;;;;26.17;20.27;;;;;;;15.30;77.95;100019.09;5014669;28;20131;-63
2021/08/18 05:20:36;;;;;;;;;;;;;;;15.30;78.28;100026.09;5013957;28;20056;-63
2021/08/18 05:23:20;;;;;;;;;;;;;;;15.30;78.17;100023.47;5014336;28;19920;-63
2021/08/18 05:26:04;;;;;;;;;;;;;;;15.30;78.28;100020.88;5013862;28;19928;-63
2021/08/18 05:28:48;;;;;;;;;;;;;;;15.30;78.31;100019.09;5014357;28;19987;-63
2021/08/18 05:31:32;;;;;;;;;;;;;;;15.31;78.18;100017.38;5014387;28;20031;-63
2021/08/18 05:34:16;;;;;;;;;;;;;;;15.31;78.26;100018.22;5013792;28;19940;-62
2021/08/18 05:37:01;;;;;;;;;;;;;;;15.33;78.26;100026.06;5014281;28;20285;-62
2021/08/18 05:39:44;;;;;;;;;;;;;;;15.33;78.31;100024.31;5014113;28;19971;-63
2021/08/18 05:42:28;;;;;;;;;;;;;;;15.33;78.23;100031.31;5013532;28;20385;-63
2021/08/18 05:45:16;;;;;;;;;;;;;;;15.33;78.36;100020.84;5013782;28;20328;-63
2021/08/18 05:47:59;;;;;;;;;;;;;;;15.33;78.31;100023.47;5014289;28;19925;-63
2021/08/18 05:50:43;;;;;;;;;;;;;;;15.34;78.28;100026.06;5013639;28;19924;-62
2021/08/18 05:53:27;;;;;;;;;;;;;;;15.33;78.42;100026.94;5013801;28;19955;-63
2021/08/18 05:56:11;;;;;;;;;;;;;;;15.35;78.32;100024.31;5013895;28;19964;-62
2021/08/18 05:58:55;;;;;;;;;;;;;;;15.34;78.22;100031.28;5013449;28;19991;-62
2021/08/18 06:01:39;;;;;;;;;;;;;;;15.35;78.38;100024.31;5014671;28;19924;-63
2021/08/18 06:04:23;;;;;;;;;;;;;;;15.36;78.47;100020.81;5013299;28;19987;-63
2021/08/18 06:07:06;;;;;;;;;;;;;;;15.36;78.36;100026.03;5014458;28;20507;-63
2021/08/18 06:09:50;;;;;;;;;;;;;;;15.36;78.50;100024.31;5013541;28;20028;-63
2021/08/18 06:12:34;;;;;;;;;;;;;;;15.38;78.36;100021.69;5013242;28;19980;-61
2021/08/18 06:15:18;;;;;;;;;;;;;;;15.37;78.46;100025.16;5013680;28;19972;-61
2021/08/18 06:18:02;;;;;;;;;;;;;;;15.37;78.40;100027.78;5013274;28;19968;-62
2021/08/18 06:20:46;;;;;;;;;;;;;;;15.37;78.56;100026.06;5012975;28;19924;-62
2021/08/18 06:23:31;;;;;;;;;;;;;;;15.38;78.39;100027.78;5013379;28;19923;-63
2021/08/18 06:26:15;;;;;;;;;;;;;;;15.38;78.53;100027.78;5012966;28;19924;-63
2021/08/18 06:28:59;;;;;;;;;;;;;;;15.38;78.46;100037.34;5012895;28;19924;-63
2021/08/18 06:31:43;;;;;;;;;;;;;;;15.40;78.58;100037.38;5012950;28;19941;-63
2021/08/18 06:34:27;;;;;;;;;;;;;;;15.39;78.39;100026.03;5013634;28;19940;-63
2021/08/18 06:37:11;;;;;;;;;;;;;;;15.40;78.53;100024.31;5012837;28;19924;-63
2021/08/18 06:39:55;;;;;;;;;;;;;;;15.40;78.58;100032.16;5012914;28;20008;-63
2021/08/18 06:42:40;;;;;;;;;;;;;;;15.41;78.62;100031.28;5012938;28;20369;-62
2021/08/18 06:45:24;;;;;;;;;;;;;;;15.41;78.56;100031.28;5013045;28;20108;-63
2021/08/18 06:48:08;;;;;;;;;;;;;;;15.40;78.58;100030.38;5013089;28;19924;-63
2021/08/18 06:50:52;;;;;;;;;;;;;;;15.41;78.57;100023.44;5013057;28;19976;-63
2021/08/18 06:53:36;;;;;;;;;;;;;;;15.41;78.57;100031.28;5016361;28;20016;-63
2021/08/18 06:56:20;;;;;;;;;;;;;;;15.40;78.55;100027.78;5017273;28;20005;-63
2021/08/18 06:59:04;;;;;;;;;;;;;;;15.41;78.57;100034.72;5016920;28;20456;-62
2021/08/18 07:01:47;;;;;;;;;;;;;;;15.41;78.62;100031.28;5016804;28;19925;-63
2021/08/18 07:04:31;;;;;;;;;;;;;;;15.42;78.40;100040.81;5017351;28;20454;-63
2021/08/18 07:07:15;;;;;;;;;;;;;;;15.42;78.66;100032.97;5016158;28;20411;-63
2021/08/18 07:09:59;;;;;;;;;;;;;;;15.42;78.72;100036.47;5016940;28;19923;-63
2021/08/18 07:12:49;;;;;;;;;;;;;;;15.42;78.56;100033.84;5016850;28;20017;-62
2021/08/18 07:15:41;;;;;;;;;;;;;;;15.42;78.69;100028.63;5016084;28;19924;-63
2021/08/18 07:18:36;;;;;;;;;;;;;;;15.42;78.73;100030.38;5016635;28;20032;-62
2021/08/18 07:21:29;;;;;;;;;;;;;;;15.42;78.68;100030.38;5017801;28;20010;-63
2021/08/18 07:24:24;;;;;;;;;;;;;;;15.42;78.62;100031.25;5016515;28;20389;-63
2021/08/18 07:27:17;;;;;;;;;;;;;;;15.43;78.64;100034.72;5017261;28;19940;-63
2021/08/18 07:30:09;;;;;;;;;;;;;;;15.41;78.79;100032.13;5017569;28;19979;-61
2021/08/18 07:33:01;;;;;;;;;;;;;;;15.42;78.73;100038.19;5016548;28;20356;-63
2021/08/18 07:35:45;;;;;;;;;;;;;;;15.43;78.71;100032.09;5015989;28;20372;-61
2021/08/18 07:38:29;;;;;;;;;;;;;;;15.43;78.78;100026.88;5016384;28;19924;-63
2021/08/18 07:41:21;;;;;;;;;;;;;;;15.42;78.74;100028.63;5016656;28;19964;-63
2021/08/18 07:44:13;;;;;;;;;;;;;;;15.43;78.56;100030.38;5015845;28;19924;-62
2021/08/18 07:47:09;;;;;;;;;;;;;;;15.43;78.63;100029.50;5015974;28;19964;-61
2021/08/18 07:50:01;;;;;;;;;;;;;;;15.44;78.75;100034.72;5016300;28;19963;-63
2021/08/18 07:52:54;;;;;;;;;;;;;;;15.44;78.80;100034.72;5016258;28;20276;-63
2021/08/18 07:55:46;;;;;;;;;;;;;;;15.45;78.73;100028.63;5016171;28;20376;-61
2021/08/18 07:58:38;;;;;;;;;;;;;;;15.46;78.67;100034.72;5016091;28;19932;-63
2021/08/18 08:01:28;;;;;;;;;;;;;;;15.48;78.57;100046.03;5015575;28;19924;-63
2021/08/18 08:04:15;;;;;;;;;;;;;;;15.47;78.72;100037.34;5014401;28;20391;-63
2021/08/18 08:06:59;;;;;;;;;;;;;;;15.47;78.63;100042.56;5016287;28;19925;-63
2021/08/18 08:09:43;;;;;;;;;;;;;;;15.47;78.62;100045.16;5016836;28;19925;-63
2021/08/18 08:12:36;;;;;;;;;;;;;;;15.49;78.64;100046.00;5016241;28;19968;-63
2021/08/18 08:15:28;;;;;;;;;;;;;;;15.49;78.71;100048.63;5015595;28;19923;-63
2021/08/18 08:18:20;;;;;;;;;;;;;;;15.50;78.62;100047.75;5015904;28;19925;-63
2021/08/18 08:21:13;;;;;;;;;;;;;;;15.51;78.60;100046.88;5015245;28;19928;-63
2021/08/18 08:24:00;;;;;;;;;;;;;;;15.51;78.69;100052.09;5015202;28;19924;-63
2021/08/18 08:26:50;;;;;;;;;;;;;;;15.51;78.63;100046.00;5015204;28;20280;-63
2021/08/18 08:29:40;;;;;;;;;;;;;;;15.51;78.67;100052.09;5015544;28;19924;-63
2021/08/18 08:32:27;;;;;;;;;;;;;;;15.51;78.73;100046.88;5014898;28;19924;-63
2021/08/18 08:35:11;;;;;;;;;;;;;;;15.50;78.68;100047.75;5015125;28;19968;-63
2021/08/18 08:38:03;;;;;;;;;;;;;;;15.51;78.60;100052.09;5015915;28;20392;-63
2021/08/18 08:40:50;;;;;;;;;;;;;;;15.51;78.41;100046.00;5014919;28;19924;-63
2021/08/18 08:43:37;;;;;;;;;;;;;;;15.51;78.54;100048.63;5015766;28;20323;-63
2021/08/18 08:46:27;;;;;;;;;;;;;;;15.51;78.51;100053.84;5015041;28;19972;-64
2021/08/18 08:49:12;;;;;;;;;;;;;;;15.52;78.63;100048.59;5015113;28;19976;-61
2021/08/18 08:51:55;;;;;;;;;;;;;;;15.54;78.63;100051.22;5014643;28;19940;-62
2021/08/18 08:54:49;;;;;;;;;;;;;;;15.53;78.58;100047.72;5016030;28;19923;-62
2021/08/18 08:57:48;;;;;;;;;;;;;;;15.53;78.64;100052.97;5015572;28;19925;-62
2021/08/18 09:00:32;;;;;;;;;;;;;;;15.56;78.63;100056.44;5014749;28;19923;-61
2021/08/18 09:03:18;;;;;;;;;;;;;;;15.57;78.64;100055.56;5015553;28;19924;-61
2021/08/18 09:06:06;;;;;;;;;;;;;;;15.56;78.59;100054.72;5014750;28;19970;-62
2021/08/18 09:08:54;;;;;;;;;;;;;;;15.57;78.57;100047.72;5015085;28;19940;-61
2021/08/18 09:11:39;;;;;;;;;;;;;;;15.57;78.59;100045.13;5014313;28;20296;-62
2021/08/18 09:14:30;;;;;;;;;;;;;;;15.58;78.48;100052.06;5015202;28;19964;-63
2021/08/18 09:17:35;;;;;;;;;;;;;;;15.59;78.56;100045.97;5014288;28;19971;-64
2021/08/18 09:20:24;;;;;;;;;;;;;;;15.58;78.58;100041.63;5014584;28;20380;-62
2021/08/18 09:23:10;;;;;;;;;;;;;;;15.57;78.44;100040.75;5013718;28;19924;-61
2021/08/18 09:25:54;;;;;;;;;;;;;;;15.58;78.52;100041.63;5014811;28;20020;-62
2021/08/18 09:28:37;;;;;;;;;;;;;;;15.58;78.43;100039.00;5014871;28;19968;-62
2021/08/18 09:31:27;;;;;;;;;;;;;;;15.60;78.65;100042.50;5015027;28;19972;-62
2021/08/18 09:34:14;;;;;;;;;;;;;;;15.60;78.44;100042.50;5013741;28;19975;-62
2021/08/18 09:37:10;;;;;;;;;;;;;;;15.58;78.49;100037.25;5014911;28;19940;-62
2021/08/18 09:39:55;;;;;;;;;;;;;;;15.59;78.50;100040.75;5014934;28;19924;-62
2021/08/18 09:42:39;;;;;;;;;;;;;;;15.60;78.28;100042.50;5014377;28;20424;-64
2021/08/18 09:45:27;;;;;;;;;;;;;;;15.61;78.43;100039.88;5014302;28;19971;-61
2021/08/18 09:48:11;;;;;;;;;;;;;;;15.63;78.34;100039.88;5013623;28;19924;-63
2021/08/18 09:50:57;;;;;;;;;;;;;;;15.62;78.21;100036.38;5014792;28;19964;-62
2021/08/18 09:53:43;;;;;;;;;;;;;;;15.64;78.15;100039.00;5014931;28;19924;-63
2021/08/18 09:56:39;;;;;;;;;;;;;;;15.64;78.39;100036.38;5013474;28;19928;-62
2021/08/18 09:59:23;;;;;;;;;;;;;;;15.63;78.42;100040.72;5014492;28;19924;-62
2021/08/18 10:02:07;;;;;;;;;;;;;;;15.64;78.36;100036.38;5013366;28;19940;-62
2021/08/18 10:04:50;;;;;;;;;;;;;;;15.64;78.40;100032.03;5013548;28;20391;-61
2021/08/18 10:07:34;;;;;;;;;;;;;;;15.65;78.31;100035.47;5014482;28;19924;-62
2021/08/18 10:10:18;;;;;;;;;;;;;;;15.65;78.22;100038.97;5014361;28;20016;-61
2021/08/18 10:13:02;;;;;;;;;;;;;;;15.66;78.41;100043.34;5014234;28;20443;-62
2021/08/18 10:15:46;;;;;;;;;;;;;;;15.66;78.33;100040.72;5014555;28;19960;-61
2021/08/18 10:18:35;;;;;;;;;;;;;;;15.66;78.44;100032.88;5013795;28;19924;-61
2021/08/18 10:21:23;;;;;;;;;;;;;;;15.68;78.26;100040.69;5013164;28;19924;-63
2021/08/18 10:24:07;;;;;;;;;;;;;;;15.67;78.35;100037.22;5013290;28;19924;-63
2021/08/18 10:26:52;;;;;;;;;;;;;;;15.68;78.40;100035.47;5012791;28;20436;-63
2021/08/18 10:29:37;;;;;;;;;;;;;;;15.67;78.20;100045.06;5014235;28;20067;-63
2021/08/18 10:32:35;;;;;;;;;;;;;;;15.68;78.32;100041.59;5013335;28;19980;-63
2021/08/18 10:35:33;;;;;;;;;;;;;;;15.68;78.16;100035.47;5013636;28;19968;-63
2021/08/18 10:38:23;;;;;;;;;;;;;;;15.68;78.12;100035.47;5012904;28;20404;-63
2021/08/18 10:41:10;;;;;;;;;;;;;;;15.68;78.16;100032.84;5014027;28;20399;-64
2021/08/18 10:44:01;;;;;;;;;;;;;;;15.67;78.12;100032.00;5014412;28;19924;-63
2021/08/18 10:47:04;;;;;;;;;;;;;;;15.69;78.11;100037.22;5013082;28;19928;-64
2021/08/18 10:49:52;;;;;;;;;;;;;;;15.71;78.14;100037.22;5013652;28;19941;-64
2021/08/18 10:52:36;;;;;;;;;;;;;;;15.70;78.30;100033.72;5013275;28;19925;-63
2021/08/18 10:55:23;;;;;;;;;;;;;;;15.71;78.07;100024.16;5014075;28;19980;-61
2021/08/18 10:58:25;;;;;;;;;;;;;;;15.72;78.33;100020.66;5013615;28;20296;-63
2021/08/18 11:01:29;;;;;;;;;;;;;;;15.72;78.23;100023.28;5013708;28;19923;-63
2021/08/18 11:04:32;;;;;;;;;;;;;;;15.72;78.19;100028.50;5012419;28;19962;-63
2021/08/18 11:07:16;;;;;;;;;;;;;;;15.71;78.14;100025.00;5012921;28;19959;-62
2021/08/18 11:10:00;;;;;;;;;;;;;;;15.71;78.13;100022.41;5013763;28;19979;-62
2021/08/18 11:12:47;;;;;;;;;;;;;;;15.72;78.23;100021.53;5013617;28;19924;-62
2021/08/18 11:15:31;;;;;;;;;;;;;;;15.73;78.03;100020.66;5013578;28;19925;-61
2021/08/18 11:18:17;;;;;;;;;;;;;;;15.74;78.11;100021.50;5013611;28;19979;-62
2021/08/18 11:21:02;;;;;;;;;;;;;;;15.74;78.18;100021.50;5013227;28;19924;-62
2021/08/18 11:23:50;;;;;;;;;;;;;;;15.73;78.03;100025.88;5013563;28;20404;-62
2021/08/18 11:26:35;;;;;;;;;;;;;;;15.75;77.88;100021.50;5013363;28;19925;-62
2021/08/18 11:29:20;;;;;;;;;;;;;;;15.75;77.98;100025.84;5013666;28;20016;-62
2021/08/18 11:32:04;;;;;;;;;;;;;;;15.76;77.92;100022.38;5012609;28;19971;-62
2021/08/18 11:34:49;;;;;;;;;;;;;;;15.76;78.07;100019.75;5012050;28;20049;-62
2021/08/18 11:37:33;;;;;;;;;;;;;;;15.76;77.87;100025.88;5012773;28;19940;-62
2021/08/18 11:40:18;;;;;;;;;;;;;;;15.77;77.98;100021.50;5017180;28;20392;-62
2021/08/18 11:43:02;;;;;;;;;;;;;;;15.77;78.11;100024.09;5016872;28;19968;-62
2021/08/18 11:45:50;;;;;;;;;;;;;;;15.77;78.02;100027.59;5016916;28;19928;-62
2021/08/18 11:48:34;;;;;;;;;;;;;;;15.77;77.79;100014.53;5015664;28;20410;-62
2021/08/18 11:51:21;;;;;;;;;;;;;;;15.78;77.93;100010.16;5015831;28;19972;-62
2021/08/18 11:54:05;;;;;;;;;;;;;;;15.79;78.01;100001.44;5016091;28;19928;-63
2021/08/18 11:56:59;;;;;;;;;;;;;;;15.79;78.14;100001.44;5016718;28;20288;-62
2021/08/18 11:59:47;;;;;;;;;;;;;;;15.81;77.82;100005.78;5016616;28;19924;-62
2021/08/18 12:02:35;;;;;;;;;;;;;;;15.81;77.76;99997.94;5016622;28;20456;-62
2021/08/18 12:05:37;;;;;;;;;;;;;;;15.81;77.96;100000.56;5015923;28;19991;-62
2021/08/18 12:08:31;;;;;;;;;;;;;;;15.82;77.73;100002.28;5015764;28;20002;-63
2021/08/18 12:11:15;;;;;;;;;;;;;;;15.84;77.79;99997.06;5016896;28;19928;-64
2021/08/18 12:14:07;;;;;;;;;;;;;;;15.85;77.94;99991.00;5016182;28;19971;-63
2021/08/18 12:16:58;;;;;;;;;;;;;;;15.86;77.74;99992.75;5016081;28;19964;-63
2021/08/18 12:19:46;;;;;;;;;;;;;;;15.86;77.75;99992.75;5016623;28;19972;-63
2021/08/18 12:22:31;;;;;;;;;;;;;;;15.86;77.81;99990.13;5015735;28;19925;-63
2021/08/18 12:25:17;;;;;;;;;;;;;;;15.87;77.83;99996.22;5015441;28;20140;-63
2021/08/18 12:28:13;;;;;;;;;;;;;;;15.88;77.75;99991.00;5015956;28;20031;-63
2021/08/18 12:30:57;;;;;;;;;;;;;;;15.88;77.60;99987.50;5016209;28;20024;-63
2021/08/18 12:33:43;;;;;;;;;;;;;;;15.88;77.81;99996.22;5016246;28;19925;-63
2021/08/18 12:36:28;;;;;;;;;;;;;;;15.90;77.80;99998.81;5015027;28;19947;-64
2021/08/18 12:39:12;;;;;;;;;;;;;;;15.90;77.60;99998.81;5015668;28;19975;-63
2021/08/18 12:41:56;;;;;;;;;;;;;;;15.90;77.73;99999.66;5016255;28;19924;-63
2021/08/18 12:44:43;;;;;;;;;;;;;;;15.90;77.73;99983.97;5015174;28;19924;-64
2021/08/18 12:47:53;;;;;;;;;;;;;;;15.90;77.78;99991.81;5015782;28;19924;-62
2021/08/18 12:50:38;;;;;;;;;;;;;;;15.91;77.76;99995.31;5015436;28;19924;-62
2021/08/18 12:53:22;;;;;;;;;;;;;;;15.91;77.76;99997.94;5015580;28;19924;-62
2021/08/18 12:56:07;;;;;;;;;;;;;;;15.91;77.71;100004.00;5016055;28;19964;-63
2021/08/18 12:58:50;;;;;;;;;;;;;;;15.91;77.62;100005.78;5015583;28;19925;-62
2021/08/18 13:01:34;;;;;;;;;;;;;;;15.91;77.65;100005.78;5014448;28;19924;-62
2021/08/18 13:04:18;;;;;;;;;;;;;;;15.90;77.51;99999.66;5015794;28;19924;-63
2021/08/18 13:07:02;;;;;;;;;;;;;;;15.89;77.50;99997.94;5014659;28;19924;-63
2021/08/18 13:09:46;;;;;;;;;;;;;;;15.89;77.64;99995.31;5015666;28;19924;-63
2021/08/18 13:12:30;;;;;;;;;;;;;;;15.90;77.51;99993.59;5014922;28;19967;-63
2021/08/18 13:15:15;;;;;;;;;;;;;;;15.91;77.73;99997.94;5015380;28;19925;-63
2021/08/18 13:17:59;;;;;;;;;;;;;;;15.90;77.63;99997.06;5014483;28;19924;-63
2021/08/18 13:20:42;;;;;;;;;;;;;;;15.90;77.53;99998.81;5014462;28;20281;-63
2021/08/18 13:23:27;;;;;;;;;;;;;;;15.91;77.54;99996.19;5014012;28;19925;-63
2021/08/18 13:26:10;;;;;;;;;;;;;;;15.91;77.63;99990.94;5015205;28;20016;-63
2021/08/18 13:28:56;;;;;;;;;;;;;;;15.93;77.46;100001.41;5014481;28;19925;-63
2021/08/18 13:31:40;;;;;;;;;;;;;;;15.92;77.68;99992.69;5015354;28;20443;-63
2021/08/18 13:34:24;;;;;;;;;;;;;;;15.93;77.49;99983.97;5015098;28;19975;-63
2021/08/18 13:37:08;;;;;;;;;;;;;;;15.95;77.56;99986.59;5013885;28;19983;-63
2021/08/18 13:39:52;;;;;;;;;;;;;;;15.96;77.43;99977.88;5013934;28;19928;-63
2021/08/18 13:42:36;;;;;;;;;;;;;;;15.96;77.33;99978.72;5014957;28;20407;-64